sensor_id;sensor_type;location;lat;lon;timestamp;P1;durP1;ratioP1;P2;durP2;ratioP2
1525;SDS011;756;49.982;8.240;2022-09-29T00:01:42;3.93;;;3.53;;
1525;SDS011;756;49.982;8.240;2022-09-29T00:04:09;4.53;;;3.80;;
1525;SDS011;756;49.982;8.240;2022-09-29T00:06:37;8.47;;;4.10;;
1525;SDS011;756;49.982;8.240;2022-09-29T00:09:03;4.97;;;4.03;;
1525;SDS011;756;49.982;8.240;2022-09-29T00:11:30;4.10;;;3.60;;
1525;SDS011;756;49.982;8.240;2022-09-29T00:13:57;7.50;;;4.80;;
1525;SDS011;756;49.982;8.240;2022-09-29T00:16:23;4.00;;;3.60;;
1525;SDS011;756;49.982;8.240;2022-09-29T00:18:52;6.90;;;3.83;;
1525;SDS011;756;49.982;8.240;2022-09-29T00:21:20;4.10;;;3.70;;
1525;SDS011;756;49.982;8.240;2022-09-29T00:23:47;4.33;;;3.90;;
1525;SDS011;756;49.982;8.240;2022-09-29T00:26:16;4.70;;;3.93;;
1525;SDS011;756;49.982;8.240;2022-09-29T00:28:46;3.57;;;3.27;;
1525;SDS011;756;49.982;8.240;2022-09-29T00:31:14;6.13;;;4.63;;
1525;SDS011;756;49.982;8.240;2022-09-29T00:33:41;4.63;;;4.00;;
1525;SDS011;756;49.982;8.240;2022-09-29T00:36:15;5.10;;;4.60;;
1525;SDS011;756;49.982;8.240;2022-09-29T00:38:43;4.30;;;3.87;;
1525;SDS011;756;49.982;8.240;2022-09-29T00:41:16;5.73;;;4.60;;
1525;SDS011;756;49.982;8.240;2022-09-29T00:49:05;5.07;;;4.60;;
1525;SDS011;756;49.982;8.240;2022-09-29T00:51:35;5.03;;;3.80;;
1525;SDS011;756;49.982;8.240;2022-09-29T00:54:05;5.00;;;4.33;;
1525;SDS011;756;49.982;8.240;2022-09-29T00:56:34;5.73;;;4.20;;
1525;SDS011;756;49.982;8.240;2022-09-29T00:59:04;4.73;;;4.30;;
1525;SDS011;756;49.982;8.240;2022-09-29T01:01:34;4.93;;;4.47;;
1525;SDS011;756;49.982;8.240;2022-09-29T01:04:02;3.97;;;3.57;;
1525;SDS011;756;49.982;8.240;2022-09-29T01:06:43;5.47;;;4.10;;
1525;SDS011;756;49.982;8.240;2022-09-29T01:09:13;4.43;;;3.87;;
1525;SDS011;756;49.982;8.240;2022-09-29T01:11:45;4.80;;;3.47;;
1525;SDS011;756;49.982;8.240;2022-09-29T01:14:12;4.87;;;4.40;;
1525;SDS011;756;49.982;8.240;2022-09-29T01:16:39;6.10;;;4.37;;
1525;SDS011;756;49.982;8.240;2022-09-29T01:19:44;5.10;;;4.30;;
1525;SDS011;756;49.982;8.240;2022-09-29T01:22:24;4.87;;;4.40;;
1525;SDS011;756;49.982;8.240;2022-09-29T01:25:10;4.90;;;3.77;;
1525;SDS011;756;49.982;8.240;2022-09-29T01:28:01;7.07;;;4.13;;
1525;SDS011;756;49.982;8.240;2022-09-29T01:39:04;4.57;;;3.80;;
1525;SDS011;756;49.982;8.240;2022-09-29T01:41:40;4.70;;;4.30;;
1525;SDS011;756;49.982;8.240;2022-09-29T01:46:49;5.43;;;4.87;;
1525;SDS011;756;49.982;8.240;2022-09-29T01:49:17;5.10;;;3.60;;
1525;SDS011;756;49.982;8.240;2022-09-29T01:52:21;4.17;;;3.77;;
1525;SDS011;756;49.982;8.240;2022-09-29T01:54:53;4.13;;;3.73;;
1525;SDS011;756;49.982;8.240;2022-09-29T01:57:30;4.40;;;4.00;;
1525;SDS011;756;49.982;8.240;2022-09-29T02:00:06;4.53;;;3.80;;
1525;SDS011;756;49.982;8.240;2022-09-29T02:05:30;3.63;;;3.33;;
1525;SDS011;756;49.982;8.240;2022-09-29T02:08:21;7.87;;;4.77;;
1525;SDS011;756;49.982;8.240;2022-09-29T02:11:07;5.17;;;3.40;;
1525;SDS011;756;49.982;8.240;2022-09-29T02:13:42;6.03;;;3.50;;
1525;SDS011;756;49.982;8.240;2022-09-29T02:16:23;4.53;;;4.10;;
1525;SDS011;756;49.982;8.240;2022-09-29T02:19:02;4.00;;;3.67;;
1525;SDS011;756;49.982;8.240;2022-09-29T02:21:33;5.80;;;4.10;;
1525;SDS011;756;49.982;8.240;2022-09-29T02:24:00;6.70;;;3.43;;
1525;SDS011;756;49.982;8.240;2022-09-29T02:26:27;5.00;;;3.80;;
1525;SDS011;756;49.982;8.240;2022-09-29T02:29:02;5.00;;;4.50;;
1525;SDS011;756;49.982;8.240;2022-09-29T02:31:31;5.60;;;5.10;;
1525;SDS011;756;49.982;8.240;2022-09-29T02:33:59;7.67;;;4.07;;
1525;SDS011;756;49.982;8.240;2022-09-29T02:52:52;14.90;;;4.57;;
1525;SDS011;756;49.982;8.240;2022-09-29T02:58:02;4.63;;;4.17;;
1525;SDS011;756;49.982;8.240;2022-09-29T03:00:40;4.33;;;3.87;;
1525;SDS011;756;49.982;8.240;2022-09-29T03:03:09;4.00;;;3.60;;
1525;SDS011;756;49.982;8.240;2022-09-29T03:05:36;4.40;;;3.67;;
1525;SDS011;756;49.982;8.240;2022-09-29T03:08:02;6.43;;;4.73;;
1525;SDS011;756;49.982;8.240;2022-09-29T03:10:29;9.03;;;7.23;;
1525;SDS011;756;49.982;8.240;2022-09-29T03:12:56;6.90;;;6.00;;
1525;SDS011;756;49.982;8.240;2022-09-29T03:15:22;9.00;;;6.90;;
1525;SDS011;756;49.982;8.240;2022-09-29T03:17:49;8.23;;;7.03;;
1525;SDS011;756;49.982;8.240;2022-09-29T03:20:19;12.70;;;7.80;;
1525;SDS011;756;49.982;8.240;2022-09-29T03:22:46;8.67;;;7.30;;
1525;SDS011;756;49.982;8.240;2022-09-29T03:25:13;13.13;;;7.67;;
1525;SDS011;756;49.982;8.240;2022-09-29T03:27:42;11.20;;;7.07;;
1525;SDS011;756;49.982;8.240;2022-09-29T03:30:10;8.77;;;6.40;;
1525;SDS011;756;49.982;8.240;2022-09-29T03:32:38;6.27;;;4.97;;
1525;SDS011;756;49.982;8.240;2022-09-29T03:35:04;6.73;;;4.97;;
1525;SDS011;756;49.982;8.240;2022-09-29T03:37:32;5.77;;;5.03;;
1525;SDS011;756;49.982;8.240;2022-09-29T03:39:58;5.70;;;4.90;;
1525;SDS011;756;49.982;8.240;2022-09-29T03:42:25;9.03;;;5.47;;
1525;SDS011;756;49.982;8.240;2022-09-29T03:44:53;5.47;;;4.57;;
1525;SDS011;756;49.982;8.240;2022-09-29T03:47:20;6.90;;;4.90;;
1525;SDS011;756;49.982;8.240;2022-09-29T03:49:46;7.17;;;4.53;;
1525;SDS011;756;49.982;8.240;2022-09-29T03:52:13;6.77;;;5.10;;
1525;SDS011;756;49.982;8.240;2022-09-29T03:54:40;7.53;;;4.60;;
1525;SDS011;756;49.982;8.240;2022-09-29T03:57:06;7.40;;;5.27;;
1525;SDS011;756;49.982;8.240;2022-09-29T03:59:33;7.13;;;4.80;;
1525;SDS011;756;49.982;8.240;2022-09-29T04:02:00;5.80;;;5.30;;
1525;SDS011;756;49.982;8.240;2022-09-29T04:04:26;5.43;;;4.50;;
1525;SDS011;756;49.982;8.240;2022-09-29T04:06:53;5.03;;;4.37;;
1525;SDS011;756;49.982;8.240;2022-09-29T04:09:20;8.33;;;4.93;;
1525;SDS011;756;49.982;8.240;2022-09-29T04:11:46;4.50;;;3.63;;
1525;SDS011;756;49.982;8.240;2022-09-29T04:14:13;5.97;;;5.37;;
1525;SDS011;756;49.982;8.240;2022-09-29T04:16:39;6.90;;;6.20;;
1525;SDS011;756;49.982;8.240;2022-09-29T04:19:06;5.10;;;4.60;;
1525;SDS011;756;49.982;8.240;2022-09-29T04:21:33;6.30;;;5.27;;
1525;SDS011;756;49.982;8.240;2022-09-29T04:24:00;6.67;;;5.43;;
1525;SDS011;756;49.982;8.240;2022-09-29T04:26:27;7.47;;;4.80;;
1525;SDS011;756;49.982;8.240;2022-09-29T04:28:54;4.53;;;4.00;;
1525;SDS011;756;49.982;8.240;2022-09-29T04:31:21;6.07;;;4.80;;
1525;SDS011;756;49.982;8.240;2022-09-29T04:33:47;4.50;;;3.90;;
1525;SDS011;756;49.982;8.240;2022-09-29T04:36:14;7.50;;;4.40;;
1525;SDS011;756;49.982;8.240;2022-09-29T04:38:41;5.30;;;3.67;;
1525;SDS011;756;49.982;8.240;2022-09-29T04:41:07;4.40;;;4.00;;
1525;SDS011;756;49.982;8.240;2022-09-29T04:43:34;6.80;;;4.23;;
1525;SDS011;756;49.982;8.240;2022-09-29T04:46:02;5.10;;;3.87;;
1525;SDS011;756;49.982;8.240;2022-09-29T04:48:29;5.03;;;4.30;;
1525;SDS011;756;49.982;8.240;2022-09-29T04:51:01;5.03;;;4.20;;
1525;SDS011;756;49.982;8.240;2022-09-29T04:53:27;5.70;;;4.53;;
1525;SDS011;756;49.982;8.240;2022-09-29T04:55:54;8.47;;;4.60;;
1525;SDS011;756;49.982;8.240;2022-09-29T04:58:21;12.67;;;6.43;;
1525;SDS011;756;49.982;8.240;2022-09-29T05:00:47;8.70;;;6.23;;
1525;SDS011;756;49.982;8.240;2022-09-29T05:03:14;6.57;;;5.30;;
1525;SDS011;756;49.982;8.240;2022-09-29T05:05:41;6.93;;;5.93;;
1525;SDS011;756;49.982;8.240;2022-09-29T05:08:07;6.50;;;5.83;;
1525;SDS011;756;49.982;8.240;2022-09-29T05:10:34;5.80;;;4.73;;
1525;SDS011;756;49.982;8.240;2022-09-29T05:13:01;4.43;;;3.73;;
1525;SDS011;756;49.982;8.240;2022-09-29T05:15:27;8.40;;;5.90;;
1525;SDS011;756;49.982;8.240;2022-09-29T05:17:54;6.93;;;5.47;;
1525;SDS011;756;49.982;8.240;2022-09-29T05:20:20;6.60;;;5.30;;
1525;SDS011;756;49.982;8.240;2022-09-29T05:22:47;6.60;;;4.97;;
1525;SDS011;756;49.982;8.240;2022-09-29T05:25:14;7.13;;;4.93;;
1525;SDS011;756;49.982;8.240;2022-09-29T05:27:40;6.63;;;4.97;;
1525;SDS011;756;49.982;8.240;2022-09-29T05:30:07;10.30;;;5.77;;
1525;SDS011;756;49.982;8.240;2022-09-29T05:32:34;8.13;;;5.57;;
1525;SDS011;756;49.982;8.240;2022-09-29T05:35:00;7.00;;;5.60;;
1525;SDS011;756;49.982;8.240;2022-09-29T05:37:28;7.10;;;5.80;;
1525;SDS011;756;49.982;8.240;2022-09-29T05:39:55;10.30;;;5.47;;
1525;SDS011;756;49.982;8.240;2022-09-29T05:42:21;9.17;;;6.27;;
1525;SDS011;756;49.982;8.240;2022-09-29T05:44:49;7.47;;;5.80;;
1525;SDS011;756;49.982;8.240;2022-09-29T05:47:15;6.90;;;5.40;;
1525;SDS011;756;49.982;8.240;2022-09-29T05:49:42;8.40;;;5.90;;
1525;SDS011;756;49.982;8.240;2022-09-29T05:52:09;7.57;;;6.77;;
1525;SDS011;756;49.982;8.240;2022-09-29T05:54:36;9.70;;;7.00;;
1525;SDS011;756;49.982;8.240;2022-09-29T05:57:02;6.43;;;5.50;;
1525;SDS011;756;49.982;8.240;2022-09-29T05:59:29;7.07;;;6.37;;
1525;SDS011;756;49.982;8.240;2022-09-29T06:01:56;6.17;;;4.80;;
1525;SDS011;756;49.982;8.240;2022-09-29T06:04:22;6.77;;;5.77;;
1525;SDS011;756;49.982;8.240;2022-09-29T06:06:49;8.83;;;6.47;;
1525;SDS011;756;49.982;8.240;2022-09-29T06:09:16;16.03;;;6.17;;
1525;SDS011;756;49.982;8.240;2022-09-29T06:11:43;6.60;;;5.97;;
1525;SDS011;756;49.982;8.240;2022-09-29T06:14:09;15.07;;;11.27;;
1525;SDS011;756;49.982;8.240;2022-09-29T06:16:36;14.70;;;11.80;;
1525;SDS011;756;49.982;8.240;2022-09-29T06:19:03;15.80;;;10.97;;
1525;SDS011;756;49.982;8.240;2022-09-29T06:21:30;14.93;;;9.70;;
1525;SDS011;756;49.982;8.240;2022-09-29T06:23:58;13.10;;;9.40;;
1525;SDS011;756;49.982;8.240;2022-09-29T06:26:26;14.73;;;9.47;;
1525;SDS011;756;49.982;8.240;2022-09-29T06:28:52;12.63;;;8.17;;
1525;SDS011;756;49.982;8.240;2022-09-29T06:31:21;9.70;;;7.00;;
1525;SDS011;756;49.982;8.240;2022-09-29T06:33:49;9.07;;;7.43;;
1525;SDS011;756;49.982;8.240;2022-09-29T06:36:17;9.43;;;7.07;;
1525;SDS011;756;49.982;8.240;2022-09-29T06:39:10;11.27;;;6.47;;
1525;SDS011;756;49.982;8.240;2022-09-29T06:41:38;9.10;;;7.43;;
1525;SDS011;756;49.982;8.240;2022-09-29T06:44:05;8.33;;;7.43;;
1525;SDS011;756;49.982;8.240;2022-09-29T06:46:32;12.20;;;9.47;;
1525;SDS011;756;49.982;8.240;2022-09-29T06:48:59;10.23;;;7.93;;
1525;SDS011;756;49.982;8.240;2022-09-29T06:51:25;9.20;;;8.27;;
1525;SDS011;756;49.982;8.240;2022-09-29T06:54:05;11.37;;;8.93;;
1525;SDS011;756;49.982;8.240;2022-09-29T06:56:37;11.07;;;8.93;;
1525;SDS011;756;49.982;8.240;2022-09-29T06:59:05;10.00;;;7.77;;
1525;SDS011;756;49.982;8.240;2022-09-29T07:01:32;10.07;;;8.20;;
1525;SDS011;756;49.982;8.240;2022-09-29T07:03:59;9.77;;;7.70;;
1525;SDS011;756;49.982;8.240;2022-09-29T07:06:27;12.53;;;9.10;;
1525;SDS011;756;49.982;8.240;2022-09-29T07:08:55;8.43;;;7.33;;
1525;SDS011;756;49.982;8.240;2022-09-29T07:11:23;10.93;;;7.87;;
1525;SDS011;756;49.982;8.240;2022-09-29T07:13:51;9.00;;;7.17;;
1525;SDS011;756;49.982;8.240;2022-09-29T07:16:20;10.20;;;7.97;;
1525;SDS011;756;49.982;8.240;2022-09-29T07:18:50;8.17;;;6.93;;
1525;SDS011;756;49.982;8.240;2022-09-29T07:21:17;8.23;;;7.03;;
1525;SDS011;756;49.982;8.240;2022-09-29T07:23:45;8.40;;;7.50;;
1525;SDS011;756;49.982;8.240;2022-09-29T07:26:13;9.40;;;7.80;;
1525;SDS011;756;49.982;8.240;2022-09-29T07:28:42;9.57;;;8.17;;
1525;SDS011;756;49.982;8.240;2022-09-29T07:31:10;10.83;;;8.00;;
1525;SDS011;756;49.982;8.240;2022-09-29T07:33:41;15.43;;;9.40;;
1525;SDS011;756;49.982;8.240;2022-09-29T07:36:09;16.20;;;10.17;;
1525;SDS011;756;49.982;8.240;2022-09-29T07:38:35;16.47;;;9.03;;
1525;SDS011;756;49.982;8.240;2022-09-29T07:41:03;20.23;;;9.80;;
1525;SDS011;756;49.982;8.240;2022-09-29T07:43:34;20.00;;;11.57;;
1525;SDS011;756;49.982;8.240;2022-09-29T07:46:01;20.30;;;11.40;;
1525;SDS011;756;49.982;8.240;2022-09-29T07:48:28;18.27;;;12.33;;
1525;SDS011;756;49.982;8.240;2022-09-29T07:51:16;19.33;;;12.60;;
1525;SDS011;756;49.982;8.240;2022-09-29T07:53:44;21.37;;;13.70;;
1525;SDS011;756;49.982;8.240;2022-09-29T07:56:12;21.47;;;13.70;;
1525;SDS011;756;49.982;8.240;2022-09-29T07:58:41;22.97;;;13.80;;
1525;SDS011;756;49.982;8.240;2022-09-29T08:01:08;22.80;;;15.47;;
1525;SDS011;756;49.982;8.240;2022-09-29T08:03:38;24.53;;;15.80;;
1525;SDS011;756;49.982;8.240;2022-09-29T08:06:06;22.17;;;15.30;;
1525;SDS011;756;49.982;8.240;2022-09-29T08:08:34;21.30;;;13.77;;
1525;SDS011;756;49.982;8.240;2022-09-29T08:11:20;24.17;;;16.03;;
1525;SDS011;756;49.982;8.240;2022-09-29T08:13:56;21.80;;;15.70;;
1525;SDS011;756;49.982;8.240;2022-09-29T08:16:23;22.93;;;16.03;;
1525;SDS011;756;49.982;8.240;2022-09-29T08:18:50;24.77;;;17.27;;
1525;SDS011;756;49.982;8.240;2022-09-29T08:21:17;25.57;;;18.20;;
1525;SDS011;756;49.982;8.240;2022-09-29T08:23:43;29.23;;;16.80;;
1525;SDS011;756;49.982;8.240;2022-09-29T08:26:11;25.63;;;15.60;;
1525;SDS011;756;49.982;8.240;2022-09-29T08:28:42;25.80;;;16.30;;
1525;SDS011;756;49.982;8.240;2022-09-29T08:31:14;25.47;;;17.60;;
1525;SDS011;756;49.982;8.240;2022-09-29T08:33:47;26.40;;;18.00;;
1525;SDS011;756;49.982;8.240;2022-09-29T08:36:18;24.43;;;16.60;;
1525;SDS011;756;49.982;8.240;2022-09-29T08:38:46;21.40;;;16.90;;
1525;SDS011;756;49.982;8.240;2022-09-29T08:41:20;25.27;;;17.47;;
1525;SDS011;756;49.982;8.240;2022-09-29T08:44:09;27.60;;;17.97;;
1525;SDS011;756;49.982;8.240;2022-09-29T08:47:05;23.77;;;15.67;;
1525;SDS011;756;49.982;8.240;2022-09-29T08:50:00;24.23;;;15.33;;
1525;SDS011;756;49.982;8.240;2022-09-29T08:52:38;23.07;;;15.37;;
1525;SDS011;756;49.982;8.240;2022-09-29T08:57:55;19.43;;;15.50;;
1525;SDS011;756;49.982;8.240;2022-09-29T09:00:29;20.83;;;15.63;;
1525;SDS011;756;49.982;8.240;2022-09-29T09:05:59;23.30;;;14.97;;
1525;SDS011;756;49.982;8.240;2022-09-29T09:20:17;23.13;;;16.67;;
1525;SDS011;756;49.982;8.240;2022-09-29T09:23:31;23.93;;;15.30;;
1525;SDS011;756;49.982;8.240;2022-09-29T09:25:48;21.80;;;16.20;;
1525;SDS011;756;49.982;8.240;2022-09-29T09:28:25;26.17;;;16.30;;
1525;SDS011;756;49.982;8.240;2022-09-29T09:31:08;23.23;;;15.70;;
1525;SDS011;756;49.982;8.240;2022-09-29T09:33:52;22.50;;;16.67;;
1525;SDS011;756;49.982;8.240;2022-09-29T09:36:53;20.33;;;16.10;;
1525;SDS011;756;49.982;8.240;2022-09-29T09:39:34;22.27;;;15.77;;
1525;SDS011;756;49.982;8.240;2022-09-29T09:42:23;24.00;;;16.47;;
1525;SDS011;756;49.982;8.240;2022-09-29T09:45:00;19.57;;;16.27;;
1525;SDS011;756;49.982;8.240;2022-09-29T09:47:41;21.77;;;16.37;;
1525;SDS011;756;49.982;8.240;2022-09-29T09:50:20;23.43;;;16.90;;
1525;SDS011;756;49.982;8.240;2022-09-29T09:53:09;22.43;;;16.00;;
1525;SDS011;756;49.982;8.240;2022-09-29T09:55:41;22.53;;;16.27;;
1525;SDS011;756;49.982;8.240;2022-09-29T10:01:12;24.93;;;16.23;;
1525;SDS011;756;49.982;8.240;2022-09-29T10:03:39;19.63;;;15.03;;
1525;SDS011;756;49.982;8.240;2022-09-29T10:06:06;19.17;;;15.57;;
1525;SDS011;756;49.982;8.240;2022-09-29T10:08:40;22.90;;;15.37;;
1525;SDS011;756;49.982;8.240;2022-09-29T10:13:51;23.93;;;16.83;;
1525;SDS011;756;49.982;8.240;2022-09-29T10:16:30;23.33;;;15.43;;
1525;SDS011;756;49.982;8.240;2022-09-29T10:19:06;21.50;;;15.90;;
1525;SDS011;756;49.982;8.240;2022-09-29T10:24:09;21.63;;;16.67;;
1525;SDS011;756;49.982;8.240;2022-09-29T10:26:53;22.33;;;16.60;;
1525;SDS011;756;49.982;8.240;2022-09-29T10:29:23;18.23;;;15.40;;
1525;SDS011;756;49.982;8.240;2022-09-29T10:32:30;21.90;;;15.17;;
1525;SDS011;756;49.982;8.240;2022-09-29T10:35:05;21.30;;;15.60;;
1525;SDS011;756;49.982;8.240;2022-09-29T10:37:35;23.20;;;16.00;;
1525;SDS011;756;49.982;8.240;2022-09-29T10:42:37;27.03;;;16.80;;
1525;SDS011;756;49.982;8.240;2022-09-29T10:47:32;22.60;;;15.37;;
1525;SDS011;756;49.982;8.240;2022-09-29T10:50:33;24.07;;;16.00;;
1525;SDS011;756;49.982;8.240;2022-09-29T10:53:03;19.43;;;14.83;;
1525;SDS011;756;49.982;8.240;2022-09-29T10:55:49;24.63;;;15.77;;
1525;SDS011;756;49.982;8.240;2022-09-29T11:01:08;21.63;;;15.93;;
1525;SDS011;756;49.982;8.240;2022-09-29T11:03:38;21.57;;;14.77;;
1525;SDS011;756;49.982;8.240;2022-09-29T11:06:11;18.30;;;14.70;;
1525;SDS011;756;49.982;8.240;2022-09-29T11:11:39;23.63;;;15.57;;
1525;SDS011;756;49.982;8.240;2022-09-29T11:16:58;18.73;;;14.50;;
1525;SDS011;756;49.982;8.240;2022-09-29T11:19:26;19.30;;;14.80;;
1525;SDS011;756;49.982;8.240;2022-09-29T11:24:47;20.30;;;14.93;;
1525;SDS011;756;49.982;8.240;2022-09-29T11:30:19;18.60;;;13.37;;
1525;SDS011;756;49.982;8.240;2022-09-29T11:36:21;22.13;;;13.20;;
1525;SDS011;756;49.982;8.240;2022-09-29T11:38:53;15.60;;;13.40;;
1525;SDS011;756;49.982;8.240;2022-09-29T11:50:12;13.27;;;10.70;;
1525;SDS011;756;49.982;8.240;2022-09-29T11:52:54;15.27;;;11.90;;
1525;SDS011;756;49.982;8.240;2022-09-29T11:55:58;17.10;;;11.33;;
1525;SDS011;756;49.982;8.240;2022-09-29T12:05:02;17.40;;;12.30;;
1525;SDS011;756;49.982;8.240;2022-09-29T12:13:54;16.23;;;11.80;;
1525;SDS011;756;49.982;8.240;2022-09-29T12:16:28;13.93;;;11.03;;
1525;SDS011;756;49.982;8.240;2022-09-29T12:19:20;13.07;;;11.00;;
1525;SDS011;756;49.982;8.240;2022-09-29T12:21:50;16.00;;;10.70;;
1525;SDS011;756;49.982;8.240;2022-09-29T12:27:03;17.37;;;11.27;;
1525;SDS011;756;49.982;8.240;2022-09-29T12:29:40;13.77;;;11.00;;
1525;SDS011;756;49.982;8.240;2022-09-29T12:32:13;15.10;;;10.60;;
1525;SDS011;756;49.982;8.240;2022-09-29T12:34:45;14.63;;;10.67;;
1525;SDS011;756;49.982;8.240;2022-09-29T12:42:38;14.20;;;10.97;;
1525;SDS011;756;49.982;8.240;2022-09-29T12:45:34;14.73;;;11.20;;
1525;SDS011;756;49.982;8.240;2022-09-29T12:51:29;19.53;;;11.57;;
1525;SDS011;756;49.982;8.240;2022-09-29T12:56:42;14.07;;;11.47;;
1525;SDS011;756;49.982;8.240;2022-09-29T13:01:55;17.10;;;11.47;;
1525;SDS011;756;49.982;8.240;2022-09-29T13:04:30;15.10;;;11.50;;
1525;SDS011;756;49.982;8.240;2022-09-29T13:10:09;14.93;;;11.43;;
1525;SDS011;756;49.982;8.240;2022-09-29T13:18:40;12.50;;;9.37;;
1525;SDS011;756;49.982;8.240;2022-09-29T13:32:39;11.63;;;8.80;;
1525;SDS011;756;49.982;8.240;2022-09-29T13:35:15;13.63;;;8.03;;
1525;SDS011;756;49.982;8.240;2022-09-29T13:37:49;13.20;;;8.57;;
1525;SDS011;756;49.982;8.240;2022-09-29T13:40:26;9.13;;;8.23;;
1525;SDS011;756;49.982;8.240;2022-09-29T13:42:54;12.03;;;8.10;;
1525;SDS011;756;49.982;8.240;2022-09-29T13:47:57;11.27;;;8.73;;
1525;SDS011;756;49.982;8.240;2022-09-29T13:50:46;9.03;;;7.67;;
1525;SDS011;756;49.982;8.240;2022-09-29T13:55:48;8.73;;;7.77;;
1525;SDS011;756;49.982;8.240;2022-09-29T14:00:57;10.27;;;7.90;;
1525;SDS011;756;49.982;8.240;2022-09-29T14:06:05;13.60;;;9.10;;
1525;SDS011;756;49.982;8.240;2022-09-29T14:09:16;11.20;;;8.63;;
1525;SDS011;756;49.982;8.240;2022-09-29T14:11:49;11.27;;;7.40;;
1525;SDS011;756;49.982;8.240;2022-09-29T14:17:09;10.07;;;6.10;;
1525;SDS011;756;49.982;8.240;2022-09-29T14:19:40;9.07;;;6.60;;
1525;SDS011;756;49.982;8.240;2022-09-29T14:33:24;9.63;;;7.90;;
1525;SDS011;756;49.982;8.240;2022-09-29T14:36:06;10.83;;;7.47;;
1525;SDS011;756;49.982;8.240;2022-09-29T14:38:46;12.63;;;7.00;;
1525;SDS011;756;49.982;8.240;2022-09-29T14:41:44;8.10;;;6.30;;
1525;SDS011;756;49.982;8.240;2022-09-29T14:44:16;9.10;;;6.33;;
1525;SDS011;756;49.982;8.240;2022-09-29T14:47:12;9.33;;;6.60;;
1525;SDS011;756;49.982;8.240;2022-09-29T14:58:53;6.83;;;5.60;;
1525;SDS011;756;49.982;8.240;2022-09-29T15:01:35;9.80;;;6.57;;
1525;SDS011;756;49.982;8.240;2022-09-29T15:04:23;8.10;;;6.47;;
1525;SDS011;756;49.982;8.240;2022-09-29T15:06:51;7.90;;;5.70;;
1525;SDS011;756;49.982;8.240;2022-09-29T15:09:19;11.40;;;5.80;;
1525;SDS011;756;49.982;8.240;2022-09-29T15:11:54;6.43;;;5.73;;
1525;SDS011;756;49.982;8.240;2022-09-29T15:14:29;6.07;;;5.47;;
1525;SDS011;756;49.982;8.240;2022-09-29T15:23:07;7.23;;;5.50;;
1525;SDS011;756;49.982;8.240;2022-09-29T15:25:56;8.53;;;5.60;;
1525;SDS011;756;49.982;8.240;2022-09-29T15:28:33;8.20;;;5.47;;
1525;SDS011;756;49.982;8.240;2022-09-29T15:31:03;9.30;;;5.70;;
1525;SDS011;756;49.982;8.240;2022-09-29T15:33:36;6.30;;;5.53;;
1525;SDS011;756;49.982;8.240;2022-09-29T15:36:22;6.47;;;4.83;;
1525;SDS011;756;49.982;8.240;2022-09-29T15:39:00;11.30;;;4.67;;
1525;SDS011;756;49.982;8.240;2022-09-29T15:41:31;19.83;;;5.97;;
1525;SDS011;756;49.982;8.240;2022-09-29T15:46:46;7.03;;;4.83;;
1525;SDS011;756;49.982;8.240;2022-09-29T15:54:36;5.50;;;3.93;;
1525;SDS011;756;49.982;8.240;2022-09-29T16:02:49;7.17;;;3.30;;
1525;SDS011;756;49.982;8.240;2022-09-29T16:05:18;8.40;;;3.83;;
1525;SDS011;756;49.982;8.240;2022-09-29T16:10:15;5.97;;;3.70;;
1525;SDS011;756;49.982;8.240;2022-09-29T16:12:46;5.70;;;3.53;;
1525;SDS011;756;49.982;8.240;2022-09-29T16:15:32;7.87;;;3.30;;
1525;SDS011;756;49.982;8.240;2022-09-29T16:18:03;4.57;;;2.97;;
1525;SDS011;756;49.982;8.240;2022-09-29T16:20:33;3.50;;;3.20;;
1525;SDS011;756;49.982;8.240;2022-09-29T16:23:08;3.97;;;3.67;;
1525;SDS011;756;49.982;8.240;2022-09-29T16:25:43;3.30;;;2.67;;
1525;SDS011;756;49.982;8.240;2022-09-29T16:28:22;3.37;;;2.93;;
1525;SDS011;756;49.982;8.240;2022-09-29T16:31:15;3.07;;;2.67;;
1525;SDS011;756;49.982;8.240;2022-09-29T16:33:45;2.80;;;2.30;;
1525;SDS011;756;49.982;8.240;2022-09-29T16:36:20;3.33;;;2.47;;
1525;SDS011;756;49.982;8.240;2022-09-29T16:38:49;5.03;;;3.30;;
1525;SDS011;756;49.982;8.240;2022-09-29T16:41:24;3.50;;;2.57;;
1525;SDS011;756;49.982;8.240;2022-09-29T16:44:42;4.70;;;3.43;;
1525;SDS011;756;49.982;8.240;2022-09-29T16:46:56;3.70;;;2.33;;
1525;SDS011;756;49.982;8.240;2022-09-29T16:49:33;3.37;;;3.07;;
1525;SDS011;756;49.982;8.240;2022-09-29T16:52:13;4.73;;;3.60;;
1525;SDS011;756;49.982;8.240;2022-09-29T16:55:16;4.37;;;3.03;;
1525;SDS011;756;49.982;8.240;2022-09-29T16:57:53;3.97;;;3.10;;
1525;SDS011;756;49.982;8.240;2022-09-29T17:00:38;3.37;;;3.00;;
1525;SDS011;756;49.982;8.240;2022-09-29T17:03:06;4.77;;;3.10;;
1525;SDS011;756;49.982;8.240;2022-09-29T17:05:37;4.13;;;3.13;;
1525;SDS011;756;49.982;8.240;2022-09-29T17:08:11;4.37;;;3.30;;
1525;SDS011;756;49.982;8.240;2022-09-29T17:10:41;3.70;;;3.20;;
1525;SDS011;756;49.982;8.240;2022-09-29T17:13:11;4.83;;;4.23;;
1525;SDS011;756;49.982;8.240;2022-09-29T17:15:41;4.50;;;2.80;;
1525;SDS011;756;49.982;8.240;2022-09-29T17:18:11;3.43;;;3.07;;
1525;SDS011;756;49.982;8.240;2022-09-29T17:20:38;42.97;;;20.30;;
1525;SDS011;756;49.982;8.240;2022-09-29T17:23:05;30.43;;;16.50;;
1525;SDS011;756;49.982;8.240;2022-09-29T17:25:32;21.23;;;11.90;;
1525;SDS011;756;49.982;8.240;2022-09-29T17:28:00;14.50;;;10.43;;
1525;SDS011;756;49.982;8.240;2022-09-29T17:30:41;9.60;;;5.97;;
1525;SDS011;756;49.982;8.240;2022-09-29T17:33:16;11.17;;;8.33;;
1525;SDS011;756;49.982;8.240;2022-09-29T17:35:45;6.30;;;5.63;;
1525;SDS011;756;49.982;8.240;2022-09-29T17:38:19;8.00;;;5.00;;
1525;SDS011;756;49.982;8.240;2022-09-29T17:40:50;6.23;;;5.60;;
1525;SDS011;756;49.982;8.240;2022-09-29T17:43:27;7.73;;;4.00;;
1525;SDS011;756;49.982;8.240;2022-09-29T17:45:56;4.63;;;4.23;;
1525;SDS011;756;49.982;8.240;2022-09-29T17:48:24;4.47;;;4.07;;
1525;SDS011;756;49.982;8.240;2022-09-29T17:50:52;5.40;;;4.90;;
1525;SDS011;756;49.982;8.240;2022-09-29T17:53:22;3.93;;;3.30;;
1525;SDS011;756;49.982;8.240;2022-09-29T17:55:51;4.27;;;2.70;;
1525;SDS011;756;49.982;8.240;2022-09-29T17:58:20;6.03;;;3.13;;
1525;SDS011;756;49.982;8.240;2022-09-29T18:00:49;3.43;;;3.13;;
1525;SDS011;756;49.982;8.240;2022-09-29T18:03:18;3.83;;;2.87;;
1525;SDS011;756;49.982;8.240;2022-09-29T18:05:47;4.10;;;3.20;;
1525;SDS011;756;49.982;8.240;2022-09-29T18:08:22;5.07;;;3.30;;
1525;SDS011;756;49.982;8.240;2022-09-29T18:10:51;5.23;;;3.37;;
1525;SDS011;756;49.982;8.240;2022-09-29T18:13:19;3.70;;;3.00;;
1525;SDS011;756;49.982;8.240;2022-09-29T18:15:47;6.10;;;3.43;;
1525;SDS011;756;49.982;8.240;2022-09-29T18:18:15;4.80;;;3.20;;
1525;SDS011;756;49.982;8.240;2022-09-29T18:20:43;4.23;;;3.13;;
1525;SDS011;756;49.982;8.240;2022-09-29T18:23:13;3.53;;;2.90;;
1525;SDS011;756;49.982;8.240;2022-09-29T18:25:43;3.90;;;3.57;;
1525;SDS011;756;49.982;8.240;2022-09-29T18:28:13;5.07;;;4.00;;
1525;SDS011;756;49.982;8.240;2022-09-29T18:30:42;6.83;;;4.13;;
1525;SDS011;756;49.982;8.240;2022-09-29T18:33:11;8.30;;;4.13;;
1525;SDS011;756;49.982;8.240;2022-09-29T18:35:40;4.73;;;3.37;;
1525;SDS011;756;49.982;8.240;2022-09-29T18:38:08;3.70;;;3.40;;
1525;SDS011;756;49.982;8.240;2022-09-29T18:40:35;8.90;;;6.30;;
1525;SDS011;756;49.982;8.240;2022-09-29T18:43:03;10.93;;;5.90;;
1525;SDS011;756;49.982;8.240;2022-09-29T18:45:33;7.23;;;4.70;;
1525;SDS011;756;49.982;8.240;2022-09-29T18:48:02;4.20;;;3.80;;
1525;SDS011;756;49.982;8.240;2022-09-29T18:50:31;7.90;;;4.50;;
1525;SDS011;756;49.982;8.240;2022-09-29T18:52:59;4.80;;;3.43;;
1525;SDS011;756;49.982;8.240;2022-09-29T18:55:27;4.20;;;3.80;;
1525;SDS011;756;49.982;8.240;2022-09-29T18:57:56;4.60;;;3.60;;
1525;SDS011;756;49.982;8.240;2022-09-29T19:00:25;4.30;;;3.70;;
1525;SDS011;756;49.982;8.240;2022-09-29T19:02:54;4.10;;;3.60;;
1525;SDS011;756;49.982;8.240;2022-09-29T19:05:22;4.40;;;3.73;;
1525;SDS011;756;49.982;8.240;2022-09-29T19:07:54;4.20;;;3.77;;
1525;SDS011;756;49.982;8.240;2022-09-29T19:10:26;4.73;;;3.70;;
1525;SDS011;756;49.982;8.240;2022-09-29T19:13:00;4.80;;;3.50;;